PWSweather.com
Personal Weather Stations
Station Observations
IMAZOWIE6
WarszawaPL

WarszawaPL

Lat: 52.27957, Lon: 21.05489

Elevation: 100

Station Type: WS1080

http://stacjapogody.waw.pl/

Latest ConditionsUpdated 9:45:45 PM GMT+01:01 Monday, Sep 23, 2019
Currently Today's Max Today's Min Today's Average
Temperature 48.4°F9.1°C 60.4°F15.8°C 48.4°F9.1°C 54.2°F12.3°C
Dew Point -168.0°F-111.1°C -166.8°F-110.4°C -168.0°F-111.1°C -167.4°F-110.8°C
Winds Calm Calm Calm -Calm - - Calm Calm
Wind Gusts -- 2.0 mph3.2 kmh - -
Humidity - - - -
Pressure 31.29 in1059.6 mb 31.29 in1059.6 mb 31.05 in1051.5 mb -
Hour Temp Dew Point Humidity Winds Wind Gusts Pressure Precip Precip Rate Daily Precip Total
09:45 PM 48.4°F9.1°C -168.0°F-111.1°C - Calm Calm -- 31.29 in1059.6 mb 0.00 in0.0 mm 0.00 in0.0 mm 0.00 in0.0 mm
09:30 PM 48.7°F9.3°C -167.9°F-111.1°C - Calm Calm -- 31.29 in1059.6 mb 0.00 in0.0 mm 0.00 in0.0 mm 0.00 in0.0 mm
09:15 PM 49.1°F9.5°C -167.9°F-111.1°C - Calm Calm 0.6 mph1.0 kmh 31.28 in1059.3 mb 0.00 in0.0 mm 0.00 in0.0 mm 0.00 in0.0 mm
09:00 PM 49.6°F9.8°C -167.8°F-111.0°C - Calm Calm -- 31.28 in1059.3 mb 0.00 in0.0 mm 0.00 in0.0 mm 0.00 in0.0 mm
08:45 PM 50.0°F10.0°C -167.8°F-111.0°C - Calm Calm -- 31.27 in1058.9 mb 0.00 in0.0 mm 0.00 in0.0 mm 0.00 in0.0 mm
08:30 PM 50.0°F10.0°C -167.8°F-111.0°C - Calm Calm -- 31.27 in1058.9 mb 0.00 in0.0 mm 0.00 in0.0 mm 0.00 in0.0 mm
08:15 PM 50.5°F10.3°C -167.7°F-110.9°C - Calm Calm -- 31.26 in1058.6 mb 0.00 in0.0 mm 0.00 in0.0 mm 0.00 in0.0 mm
08:00 PM 51.1°F10.6°C -167.7°F-110.9°C - Calm Calm -- 31.26 in1058.6 mb 0.00 in0.0 mm 0.00 in0.0 mm 0.00 in0.0 mm
07:45 PM 51.4°F10.8°C -167.7°F-110.9°C - Calm Calm -- 31.24 in1057.9 mb 0.00 in0.0 mm 0.00 in0.0 mm 0.00 in0.0 mm
07:30 PM 51.8°F11.0°C -167.6°F-110.9°C - Calm Calm -- 31.23 in1057.6 mb 0.00 in0.0 mm 0.00 in0.0 mm 0.00 in0.0 mm
07:15 PM 52.0°F11.1°C -167.6°F-110.9°C - Calm Calm -- 31.23 in1057.6 mb 0.00 in0.0 mm 0.00 in0.0 mm 0.00 in0.0 mm
07:00 PM 52.9°F11.6°C -167.5°F-110.8°C - Calm Calm -- 31.22 in1057.2 mb 0.00 in0.0 mm 0.00 in0.0 mm 0.00 in0.0 mm
06:45 PM 53.2°F11.8°C -167.5°F-110.8°C - Calm Calm -- 31.21 in1056.9 mb 0.00 in0.0 mm 0.00 in0.0 mm 0.00 in0.0 mm
06:30 PM 53.6°F12.0°C -167.4°F-110.8°C - Calm Calm -- 31.20 in1056.6 mb 0.00 in0.0 mm 0.00 in0.0 mm 0.00 in0.0 mm
06:15 PM 54.3°F12.4°C -167.4°F-110.8°C - Calm Calm -- 31.19 in1056.2 mb 0.00 in0.0 mm 0.00 in0.0 mm 0.00 in0.0 mm
06:00 PM 54.9°F12.7°C -167.3°F-110.7°C - Calm Calm -- 31.18 in1055.9 mb 0.00 in0.0 mm 0.00 in0.0 mm 0.00 in0.0 mm
05:45 PM 55.4°F13.0°C -167.3°F-110.7°C - Calm Calm -- 31.16 in1055.2 mb 0.00 in0.0 mm 0.00 in0.0 mm 0.00 in0.0 mm
05:30 PM 55.9°F13.3°C -167.2°F-110.7°C - Calm Calm -- 31.15 in1054.9 mb 0.00 in0.0 mm 0.00 in0.0 mm 0.00 in0.0 mm
05:15 PM 56.7°F13.7°C -167.1°F-110.6°C - Calm Calm -- 31.14 in1054.5 mb 0.00 in0.0 mm 0.00 in0.0 mm 0.00 in0.0 mm
05:00 PM 57.2°F14.0°C -167.1°F-110.6°C - Calm Calm -- 31.13 in1054.2 mb 0.00 in0.0 mm 0.00 in0.0 mm 0.00 in0.0 mm
04:45 PM 57.7°F14.3°C -167.0°F-110.6°C - Calm Calm -- 31.12 in1053.8 mb 0.00 in0.0 mm 0.00 in0.0 mm 0.00 in0.0 mm
04:30 PM 58.3°F14.6°C -167.0°F-110.6°C - Calm Calm -- 31.12 in1053.8 mb 0.00 in0.0 mm 0.00 in0.0 mm 0.00 in0.0 mm
04:15 PM 58.8°F14.9°C -166.9°F-110.5°C - Calm Calm -- 31.11 in1053.5 mb 0.00 in0.0 mm 0.00 in0.0 mm 0.00 in0.0 mm
04:00 PM 59.2°F15.1°C -166.9°F-110.5°C - Calm Calm 0.6 mph1.0 kmh 31.10 in1053.2 mb 0.00 in0.0 mm 0.00 in0.0 mm 0.00 in0.0 mm
03:45 PM 59.5°F15.3°C -166.8°F-110.4°C - Calm Calm -- 31.09 in1052.8 mb 0.00 in0.0 mm 0.00 in0.0 mm 0.00 in0.0 mm
03:30 PM 59.5°F15.3°C -166.8°F-110.4°C - Calm Calm -- 31.09 in1052.8 mb 0.00 in0.0 mm 0.00 in0.0 mm 0.00 in0.0 mm
03:15 PM 59.9°F15.5°C -166.8°F-110.4°C - Calm Calm -- 31.08 in1052.5 mb 0.00 in0.0 mm 0.00 in0.0 mm 0.00 in0.0 mm
03:00 PM 59.9°F15.5°C -166.8°F-110.4°C - Calm Calm -- 31.08 in1052.5 mb 0.00 in0.0 mm 0.00 in0.0 mm 0.00 in0.0 mm
02:45 PM 60.3°F15.7°C -166.8°F-110.4°C - Calm Calm -- 31.08 in1052.5 mb 0.00 in0.0 mm 0.00 in0.0 mm 0.00 in0.0 mm
02:30 PM 59.9°F15.5°C -166.8°F-110.4°C - Calm Calm -- 31.08 in1052.5 mb 0.00 in0.0 mm 0.00 in0.0 mm 0.00 in0.0 mm
02:15 PM 59.7°F15.4°C -166.8°F-110.4°C - Calm Calm -- 31.08 in1052.5 mb 0.00 in0.0 mm 0.00 in0.0 mm 0.00 in0.0 mm
02:00 PM 59.7°F15.4°C -166.8°F-110.4°C - Calm Calm -- 31.08 in1052.5 mb 0.00 in0.0 mm 0.00 in0.0 mm 0.00 in0.0 mm
01:45 PM 60.1°F15.6°C -166.8°F-110.4°C - Calm Calm -- 31.09 in1052.8 mb 0.00 in0.0 mm 0.00 in0.0 mm 0.00 in0.0 mm
01:30 PM 59.7°F15.4°C -166.8°F-110.4°C - Calm Calm -- 31.09 in1052.8 mb 0.00 in0.0 mm 0.00 in0.0 mm 0.00 in0.0 mm
01:15 PM 59.7°F15.4°C -166.8°F-110.4°C - Calm Calm -- 31.10 in1053.2 mb 0.00 in0.0 mm 0.00 in0.0 mm 0.00 in0.0 mm
01:00 PM 60.4°F15.8°C -166.8°F-110.4°C - Calm Calm -- 31.11 in1053.5 mb 0.00 in0.0 mm 0.00 in0.0 mm 0.00 in0.0 mm
12:45 PM 60.3°F15.7°C -166.8°F-110.4°C - Calm Calm -- 31.13 in1054.2 mb 0.00 in0.0 mm 0.00 in0.0 mm 0.00 in0.0 mm
12:30 PM 59.5°F15.3°C -166.8°F-110.4°C - Calm Calm -- 31.14 in1054.5 mb 0.00 in0.0 mm 0.00 in0.0 mm 0.00 in0.0 mm
12:15 PM 59.7°F15.4°C -166.8°F-110.4°C - Calm Calm -- 31.15 in1054.9 mb 0.00 in0.0 mm 0.00 in0.0 mm 0.00 in0.0 mm
12:00 PM 59.4°F15.2°C -166.9°F-110.5°C - Calm Calm -- 31.16 in1055.2 mb 0.00 in0.0 mm 0.00 in0.0 mm 0.00 in0.0 mm
11:45 AM 58.6°F14.8°C -166.9°F-110.5°C - Calm Calm 2.0 mph3.2 kmh 31.18 in1055.9 mb 0.00 in0.0 mm 0.00 in0.0 mm 0.00 in0.0 mm
11:30 AM 58.6°F14.8°C -166.9°F-110.5°C - Calm Calm -- 31.18 in1055.9 mb 0.00 in0.0 mm 0.00 in0.0 mm 0.00 in0.0 mm
11:15 AM 58.6°F14.8°C -166.9°F-110.5°C - Calm Calm -- 31.18 in1055.9 mb 0.00 in0.0 mm 0.00 in0.0 mm 0.00 in0.0 mm
11:00 AM 58.5°F14.7°C -167.0°F-110.6°C - Calm Calm -- 31.19 in1056.2 mb 0.00 in0.0 mm 0.00 in0.0 mm 0.00 in0.0 mm
10:45 AM 58.3°F14.6°C -167.0°F-110.6°C - Calm Calm 0.6 mph1.0 kmh 31.20 in1056.6 mb 0.00 in0.0 mm 0.00 in0.0 mm 0.00 in0.0 mm
10:30 AM 57.2°F14.0°C -167.1°F-110.6°C - Calm Calm -- 31.20 in1056.6 mb 0.00 in0.0 mm 0.00 in0.0 mm 0.00 in0.0 mm
10:15 AM 56.8°F13.8°C -167.1°F-110.6°C - Calm Calm -- 31.20 in1056.6 mb 0.00 in0.0 mm 0.00 in0.0 mm 0.00 in0.0 mm
10:00 AM 56.1°F13.4°C -167.2°F-110.7°C - Calm Calm -- 31.20 in1056.6 mb 0.00 in0.0 mm 0.00 in0.0 mm 0.00 in0.0 mm
09:45 AM 55.8°F13.2°C -167.2°F-110.7°C - Calm Calm -- 31.20 in1056.6 mb 0.00 in0.0 mm 0.00 in0.0 mm 0.00 in0.0 mm
09:30 AM 55.6°F13.1°C -167.2°F-110.7°C - Calm Calm -- 31.21 in1056.9 mb 0.00 in0.0 mm 0.00 in0.0 mm 0.00 in0.0 mm
09:15 AM 55.4°F13.0°C -167.3°F-110.7°C - Calm Calm -- 31.21 in1056.9 mb 0.00 in0.0 mm 0.00 in0.0 mm 0.00 in0.0 mm
09:00 AM 55.4°F13.0°C -167.3°F-110.7°C - Calm Calm -- 31.20 in1056.6 mb 0.00 in0.0 mm 0.00 in0.0 mm 0.00 in0.0 mm
08:45 AM 54.9°F12.7°C -167.3°F-110.7°C - Calm Calm -- 31.21 in1056.9 mb 0.00 in0.0 mm 0.00 in0.0 mm 0.00 in0.0 mm
08:30 AM 54.9°F12.7°C -167.3°F-110.7°C - Calm Calm -- 31.21 in1056.9 mb 0.00 in0.0 mm 0.00 in0.0 mm 0.00 in0.0 mm
08:15 AM 54.3°F12.4°C -167.4°F-110.8°C - Calm Calm -- 31.21 in1056.9 mb 0.00 in0.0 mm 0.00 in0.0 mm 0.00 in0.0 mm
08:00 AM 54.1°F12.3°C -167.4°F-110.8°C - Calm Calm -- 31.21 in1056.9 mb 0.00 in0.0 mm 0.00 in0.0 mm 0.00 in0.0 mm
07:45 AM 54.1°F12.3°C -167.4°F-110.8°C - Calm Calm -- 31.21 in1056.9 mb 0.00 in0.0 mm 0.00 in0.0 mm 0.00 in0.0 mm
07:30 AM 53.6°F12.0°C -167.4°F-110.8°C - Calm Calm -- 31.20 in1056.6 mb 0.00 in0.0 mm 0.00 in0.0 mm 0.00 in0.0 mm
07:15 AM 53.2°F11.8°C -167.5°F-110.8°C - Calm Calm -- 31.21 in1056.9 mb 0.00 in0.0 mm 0.00 in0.0 mm 0.00 in0.0 mm
07:00 AM 53.2°F11.8°C -167.5°F-110.8°C - Calm Calm -- 31.21 in1056.9 mb 0.00 in0.0 mm 0.00 in0.0 mm 0.00 in0.0 mm
06:45 AM 53.1°F11.7°C -167.5°F-110.8°C - Calm Calm 0.6 mph1.0 kmh 31.21 in1056.9 mb 0.00 in0.0 mm 0.00 in0.0 mm 0.00 in0.0 mm
06:30 AM 52.7°F11.5°C -167.5°F-110.8°C - Calm Calm -- 31.20 in1056.6 mb 0.00 in0.0 mm 0.00 in0.0 mm 0.00 in0.0 mm
06:15 AM 51.8°F11.0°C -167.6°F-110.9°C - Calm Calm -- 31.20 in1056.6 mb 0.00 in0.0 mm 0.00 in0.0 mm 0.00 in0.0 mm
06:00 AM 51.8°F11.0°C -167.6°F-110.9°C - Calm Calm -- 31.20 in1056.6 mb 0.00 in0.0 mm 0.00 in0.0 mm 0.00 in0.0 mm
05:45 AM 51.3°F10.7°C -167.7°F-110.9°C - Calm Calm -- 31.19 in1056.2 mb 0.00 in0.0 mm 0.00 in0.0 mm 0.00 in0.0 mm
05:30 AM 50.9°F10.5°C -167.7°F-110.9°C - Calm Calm -- 31.19 in1056.2 mb 0.00 in0.0 mm 0.00 in0.0 mm 0.00 in0.0 mm
05:15 AM 50.5°F10.3°C -167.7°F-110.9°C - Calm Calm -- 31.19 in1056.2 mb 0.00 in0.0 mm 0.00 in0.0 mm 0.00 in0.0 mm
05:00 AM 50.5°F10.3°C -167.7°F-110.9°C - Calm Calm -- 31.18 in1055.9 mb 0.00 in0.0 mm 0.00 in0.0 mm 0.00 in0.0 mm
04:45 AM 50.5°F10.3°C -167.7°F-110.9°C - Calm Calm -- 31.17 in1055.5 mb 0.00 in0.0 mm 0.00 in0.0 mm 0.00 in0.0 mm
04:30 AM 50.4°F10.2°C -167.8°F-111.0°C - Calm Calm -- 31.16 in1055.2 mb 0.00 in0.0 mm 0.00 in0.0 mm 0.00 in0.0 mm
04:15 AM 50.2°F10.1°C -167.8°F-111.0°C - Calm Calm -- 31.15 in1054.9 mb 0.00 in0.0 mm 0.00 in0.0 mm 0.00 in0.0 mm
04:00 AM 49.5°F9.7°C -167.9°F-111.1°C - Calm Calm -- 31.15 in1054.9 mb 0.00 in0.0 mm 0.00 in0.0 mm 0.00 in0.0 mm
03:45 AM 49.5°F9.7°C -167.9°F-111.1°C - Calm Calm -- 31.15 in1054.9 mb 0.00 in0.0 mm 0.00 in0.0 mm 0.00 in0.0 mm
03:30 AM 49.5°F9.7°C -167.9°F-111.1°C - Calm Calm -- 31.14 in1054.5 mb 0.00 in0.0 mm 0.00 in0.0 mm 0.00 in0.0 mm
03:15 AM 49.5°F9.7°C -167.9°F-111.1°C - Calm Calm -- 31.13 in1054.2 mb 0.00 in0.0 mm 0.00 in0.0 mm 0.00 in0.0 mm
03:00 AM 49.5°F9.7°C -167.9°F-111.1°C - Calm Calm -- 31.13 in1054.2 mb 0.00 in0.0 mm 0.00 in0.0 mm 0.00 in0.0 mm
02:45 AM 49.5°F9.7°C -167.9°F-111.1°C - Calm Calm -- 31.13 in1054.2 mb 0.00 in0.0 mm 0.00 in0.0 mm 0.00 in0.0 mm
02:30 AM 49.8°F9.9°C -167.8°F-111.0°C - Calm Calm -- 31.11 in1053.5 mb 0.00 in0.0 mm 0.00 in0.0 mm 0.00 in0.0 mm
02:15 AM 49.5°F9.7°C -167.9°F-111.1°C - Calm Calm -- 31.10 in1053.2 mb 0.00 in0.0 mm 0.00 in0.0 mm 0.00 in0.0 mm
02:00 AM 50.2°F10.1°C -167.8°F-111.0°C - Calm Calm -- 31.09 in1052.8 mb 0.00 in0.0 mm 0.00 in0.0 mm 0.00 in0.0 mm
01:45 AM 50.2°F10.1°C -167.8°F-111.0°C - Calm Calm -- 31.09 in1052.8 mb 0.00 in0.0 mm 0.00 in0.0 mm 0.00 in0.0 mm
01:30 AM 50.5°F10.3°C -167.7°F-110.9°C - Calm Calm -- 31.09 in1052.8 mb 0.00 in0.0 mm 0.00 in0.0 mm 0.00 in0.0 mm
01:15 AM 50.4°F10.2°C -167.8°F-111.0°C - Calm Calm -- 31.08 in1052.5 mb 0.00 in0.0 mm 0.00 in0.0 mm 0.00 in0.0 mm
01:00 AM 50.9°F10.5°C -167.7°F-110.9°C - Calm Calm -- 31.07 in1052.2 mb 0.00 in0.0 mm 0.00 in0.0 mm 0.00 in0.0 mm
12:45 AM 50.7°F10.4°C -167.7°F-110.9°C - Calm Calm -- 31.07 in1052.2 mb 0.00 in0.0 mm 0.00 in0.0 mm 0.00 in0.0 mm
12:30 AM 51.3°F10.7°C -167.7°F-110.9°C - Calm Calm -- 31.06 in1051.8 mb 0.00 in0.0 mm 0.00 in0.0 mm 0.00 in0.0 mm
12:15 AM 51.3°F10.7°C -167.7°F-110.9°C - Calm Calm -- 31.05 in1051.5 mb 0.00 in0.0 mm 0.00 in0.0 mm 0.00 in0.0 mm
12:00 AM 51.4°F10.8°C -167.7°F-110.9°C - Calm Calm -- 31.05 in1051.5 mb 0.00 in0.0 mm 0.00 in0.0 mm 0.00 in0.0 mm